sensor_id;sensor_type;location;lat;lon;timestamp;pressure;altitude;pressure_sealevel;temperature;humidity
53715;BME280;39608;55.630;37.864;2023-05-11T04:48:38;100183.09;;;14.99;36.72
53715;BME280;39608;55.630;37.864;2023-05-11T06:08:52;100175.06;;;17.18;36.31
53715;BME280;39608;55.630;37.864;2023-05-11T06:13:54;100181.38;;;17.18;36.75
53715;BME280;39608;55.630;37.864;2023-05-11T06:18:56;100180.53;;;17.53;36.57
53715;BME280;39608;55.630;37.864;2023-05-11T06:23:59;100193.66;;;18.03;35.25
53715;BME280;39608;55.630;37.864;2023-05-11T06:29:01;100191.25;;;18.40;33.85
53715;BME280;39608;55.630;37.864;2023-05-11T06:34:03;100184.75;;;18.45;33.39
53715;BME280;39608;55.630;37.864;2023-05-11T06:39:07;100199.44;;;18.79;34.82
53715;BME280;39608;55.630;37.864;2023-05-11T06:44:09;100187.41;;;18.92;32.89
53715;BME280;39608;55.630;37.864;2023-05-11T06:49:12;100179.50;;;18.91;31.57
53715;BME280;39608;55.630;37.864;2023-05-11T06:54:16;100196.59;;;19.18;32.34
53715;BME280;39608;55.630;37.864;2023-05-11T06:59:18;100185.69;;;19.42;31.99
53715;BME280;39608;55.630;37.864;2023-05-11T07:04:20;100210.03;;;19.86;31.42
53715;BME280;39608;55.630;37.864;2023-05-11T07:09:23;100204.59;;;20.11;31.29
53715;BME280;39608;55.630;37.864;2023-05-11T07:14:26;100198.84;;;20.04;31.89
53715;BME280;39608;55.630;37.864;2023-05-11T07:19:28;100202.97;;;19.97;31.44
53715;BME280;39608;55.630;37.864;2023-05-11T07:24:31;100196.19;;;19.95;30.93
53715;BME280;39608;55.630;37.864;2023-05-11T07:29:33;100204.78;;;19.93;29.72
53715;BME280;39608;55.630;37.864;2023-05-11T07:34:35;100197.28;;;20.27;30.33
53715;BME280;39608;55.630;37.864;2023-05-11T07:39:39;100186.38;;;21.21;28.68
53715;BME280;39608;55.630;37.864;2023-05-11T07:44:41;100189.41;;;21.32;28.98
53715;BME280;39608;55.630;37.864;2023-05-11T07:49:43;100180.75;;;22.38;27.44
53715;BME280;39608;55.630;37.864;2023-05-11T07:54:48;100196.97;;;22.24;27.58
53715;BME280;39608;55.630;37.864;2023-05-11T07:59:50;100192.13;;;22.52;26.36
53715;BME280;39608;55.630;37.864;2023-05-11T08:04:52;100187.03;;;22.70;26.22
53715;BME280;39608;55.630;37.864;2023-05-11T08:09:56;100185.72;;;22.00;26.73
53715;BME280;39608;55.630;37.864;2023-05-11T08:14:58;100194.19;;;21.07;27.15
53715;BME280;39608;55.630;37.864;2023-05-11T08:20:00;100200.22;;;20.59;27.21
53715;BME280;39608;55.630;37.864;2023-05-11T08:25:05;100177.41;;;20.22;27.98
53715;BME280;39608;55.630;37.864;2023-05-11T08:30:07;100182.00;;;20.17;27.85
53715;BME280;39608;55.630;37.864;2023-05-11T08:35:10;100190.84;;;21.54;26.23
53715;BME280;39608;55.630;37.864;2023-05-11T08:40:14;100183.31;;;22.63;24.93
53715;BME280;39608;55.630;37.864;2023-05-11T08:45:16;100178.22;;;23.39;25.06
53715;BME280;39608;55.630;37.864;2023-05-11T08:50:20;100165.03;;;22.58;25.06
53715;BME280;39608;55.630;37.864;2023-05-11T08:55:25;100175.47;;;22.33;26.11
53715;BME280;39608;55.630;37.864;2023-05-11T09:00:27;100161.03;;;22.55;25.29
53715;BME280;39608;55.630;37.864;2023-05-11T09:05:31;100164.44;;;23.23;25.01
53715;BME280;39608;55.630;37.864;2023-05-11T09:10:35;100157.19;;;24.01;23.85
53715;BME280;39608;55.630;37.864;2023-05-11T09:15:37;100161.19;;;24.03;23.96
53715;BME280;39608;55.630;37.864;2023-05-11T09:20:42;100142.91;;;24.25;23.62
53715;BME280;39608;55.630;37.864;2023-05-11T09:25:47;100155.00;;;23.24;24.57
53715;BME280;39608;55.630;37.864;2023-05-11T09:30:49;100154.47;;;21.96;25.63
53715;BME280;39608;55.630;37.864;2023-05-11T09:35:52;100137.16;;;21.23;26.83
53715;BME280;39608;55.630;37.864;2023-05-11T09:40:55;100123.63;;;20.77;27.18
53715;BME280;39608;55.630;37.864;2023-05-11T09:45:58;100115.66;;;21.45;26.66
53715;BME280;39608;55.630;37.864;2023-05-11T09:51:05;100109.44;;;23.41;24.71
53715;BME280;39608;55.630;37.864;2023-05-11T09:56:09;100096.31;;;24.92;23.40
53715;BME280;39608;55.630;37.864;2023-05-11T10:01:12;100098.63;;;25.61;21.99
53715;BME280;39608;55.630;37.864;2023-05-11T10:06:15;100098.94;;;25.98;22.05
53715;BME280;39608;55.630;37.864;2023-05-11T10:11:20;100082.13;;;26.35;22.33
53715;BME280;39608;55.630;37.864;2023-05-11T10:16:22;100072.41;;;26.74;21.79
53715;BME280;39608;55.630;37.864;2023-05-11T10:21:25;100093.97;;;27.06;21.48
53715;BME280;39608;55.630;37.864;2023-05-11T10:26:30;100092.91;;;26.44;21.68
53715;BME280;39608;55.630;37.864;2023-05-11T10:31:34;100095.13;;;25.31;22.58
53715;BME280;39608;55.630;37.864;2023-05-11T10:36:37;100090.19;;;23.72;23.85
53715;BME280;39608;55.630;37.864;2023-05-11T10:41:47;100087.03;;;21.81;26.03
53715;BME280;39608;55.630;37.864;2023-05-11T10:47:08;100125.44;;;19.95;27.85
53715;BME280;39608;55.630;37.864;2023-05-11T10:52:24;100153.19;;;18.30;30.44
53715;BME280;39608;55.630;37.864;2023-05-11T10:57:48;100136.72;;;17.09;32.55
53715;BME280;39608;55.630;37.864;2023-05-11T11:03:08;100144.38;;;16.54;36.67
53715;BME280;39608;55.630;37.864;2023-05-11T11:08:10;100152.84;;;16.35;37.93
53715;BME280;39608;55.630;37.864;2023-05-11T11:13:15;100156.78;;;16.60;37.36
53715;BME280;39608;55.630;37.864;2023-05-11T11:18:18;100138.81;;;17.03;37.65
53715;BME280;39608;55.630;37.864;2023-05-11T11:23:40;100126.53;;;17.92;35.90
53715;BME280;39608;55.630;37.864;2023-05-11T11:29:09;100114.63;;;18.69;34.94
53715;BME280;39608;55.630;37.864;2023-05-11T11:34:36;100124.13;;;19.35;34.88
53715;BME280;39608;55.630;37.864;2023-05-11T11:39:46;100116.13;;;20.25;34.22
53715;BME280;39608;55.630;37.864;2023-05-11T11:44:51;100105.03;;;20.74;32.85
53715;BME280;39608;55.630;37.864;2023-05-11T11:49:54;100096.56;;;21.52;31.63
53715;BME280;39608;55.630;37.864;2023-05-11T11:54:56;100100.94;;;21.25;30.67
53715;BME280;39608;55.630;37.864;2023-05-11T12:00:02;100092.25;;;20.04;32.24
53715;BME280;39608;55.630;37.864;2023-05-11T12:05:09;100090.66;;;19.32;33.16
53715;BME280;39608;55.630;37.864;2023-05-11T12:10:13;100093.16;;;19.25;34.20
53715;BME280;39608;55.630;37.864;2023-05-11T12:15:25;100081.66;;;19.57;32.70
53715;BME280;39608;55.630;37.864;2023-05-11T12:20:27;100080.09;;;19.35;33.33
53715;BME280;39608;55.630;37.864;2023-05-11T12:25:29;100071.44;;;19.70;32.81
53715;BME280;39608;55.630;37.864;2023-05-11T12:30:33;100078.06;;;21.40;30.96
53715;BME280;39608;55.630;37.864;2023-05-11T12:35:35;100074.56;;;21.87;28.82
53715;BME280;39608;55.630;37.864;2023-05-11T12:40:46;100081.44;;;21.62;30.16
53715;BME280;39608;55.630;37.864;2023-05-11T12:45:49;100077.34;;;22.23;28.25
53715;BME280;39608;55.630;37.864;2023-05-11T12:50:51;100068.28;;;22.97;27.38
53715;BME280;39608;55.630;37.864;2023-05-11T12:55:57;100076.63;;;21.75;29.07
53715;BME280;39608;55.630;37.864;2023-05-11T13:01:01;100066.31;;;21.27;29.84
53715;BME280;39608;55.630;37.864;2023-05-11T13:06:04;100063.00;;;21.06;30.69
53715;BME280;39608;55.630;37.864;2023-05-11T13:11:17;100072.97;;;21.10;30.33
53715;BME280;39608;55.630;37.864;2023-05-11T13:16:25;100071.53;;;20.60;30.90
53715;BME280;39608;55.630;37.864;2023-05-11T13:21:28;100064.81;;;20.20;31.35
53715;BME280;39608;55.630;37.864;2023-05-11T13:26:32;100064.38;;;20.06;31.25
53715;BME280;39608;55.630;37.864;2023-05-11T13:31:42;100062.31;;;20.80;29.91
53715;BME280;39608;55.630;37.864;2023-05-11T13:36:47;100055.59;;;22.37;27.68
53715;BME280;39608;55.630;37.864;2023-05-11T13:41:51;100058.31;;;23.82;26.57
53715;BME280;39608;55.630;37.864;2023-05-11T13:46:56;100047.31;;;25.07;25.08
53715;BME280;39608;55.630;37.864;2023-05-11T13:51:59;100045.44;;;25.18;23.52
53715;BME280;39608;55.630;37.864;2023-05-11T13:57:01;100060.47;;;25.51;24.21
53715;BME280;39608;55.630;37.864;2023-05-11T14:02:05;100036.53;;;25.88;24.51
53715;BME280;39608;55.630;37.864;2023-05-11T14:07:09;100048.72;;;26.32;23.72
53715;BME280;39608;55.630;37.864;2023-05-11T14:12:12;100045.94;;;26.32;23.22
53715;BME280;39608;55.630;37.864;2023-05-11T14:17:15;100035.31;;;26.48;22.81
53715;BME280;39608;55.630;37.864;2023-05-11T14:22:18;100043.25;;;26.46;22.27
53715;BME280;39608;55.630;37.864;2023-05-11T14:27:20;100050.84;;;26.53;23.44
53715;BME280;39608;55.630;37.864;2023-05-11T14:32:24;100050.41;;;26.43;22.87
53715;BME280;39608;55.630;37.864;2023-05-11T14:37:26;100038.38;;;25.24;24.13
53715;BME280;39608;55.630;37.864;2023-05-11T14:42:29;100033.72;;;24.60;25.34
53715;BME280;39608;55.630;37.864;2023-05-11T14:47:33;100041.16;;;24.87;24.54
53715;BME280;39608;55.630;37.864;2023-05-11T14:52:35;100038.59;;;25.05;24.66
53715;BME280;39608;55.630;37.864;2023-05-11T14:57:39;100031.66;;;25.25;24.81
53715;BME280;39608;55.630;37.864;2023-05-11T15:02:44;100030.63;;;25.03;24.23
53715;BME280;39608;55.630;37.864;2023-05-11T15:07:46;100033.91;;;24.45;25.23
53715;BME280;39608;55.630;37.864;2023-05-11T15:12:50;100017.09;;;24.03;25.82
53715;BME280;39608;55.630;37.864;2023-05-11T15:17:53;100025.81;;;23.79;25.74
53715;BME280;39608;55.630;37.864;2023-05-11T15:22:55;100021.97;;;23.14;26.82
53715;BME280;39608;55.630;37.864;2023-05-11T15:27:57;100024.00;;;22.19;27.99
53715;BME280;39608;55.630;37.864;2023-05-11T15:33:01;100018.09;;;21.37;29.40
53715;BME280;39608;55.630;37.864;2023-05-11T15:38:04;100017.66;;;20.62;32.33
53715;BME280;39608;55.630;37.864;2023-05-11T15:43:06;100014.59;;;20.11;33.28
53715;BME280;39608;55.630;37.864;2023-05-11T15:48:10;100003.56;;;19.74;33.52
53715;BME280;39608;55.630;37.864;2023-05-11T15:53:12;100001.53;;;19.34;34.51
53715;BME280;39608;55.630;37.864;2023-05-11T15:58:15;99996.34;;;18.86;35.79
53715;BME280;39608;55.630;37.864;2023-05-11T16:03:18;99993.47;;;18.83;34.94
53715;BME280;39608;55.630;37.864;2023-05-11T16:08:21;100019.06;;;18.95;34.81
53715;BME280;39608;55.630;37.864;2023-05-11T16:13:23;100021.28;;;18.81;35.64
53715;BME280;39608;55.630;37.864;2023-05-11T16:18:27;100053.66;;;18.33;36.00
53715;BME280;39608;55.630;37.864;2023-05-11T16:23:30;100044.53;;;17.90;38.20
53715;BME280;39608;55.630;37.864;2023-05-11T16:28:32;100051.41;;;17.75;39.09
53715;BME280;39608;55.630;37.864;2023-05-11T16:33:36;100066.28;;;17.66;39.79
53715;BME280;39608;55.630;37.864;2023-05-11T16:38:38;100061.72;;;17.31;40.90
53715;BME280;39608;55.630;37.864;2023-05-11T16:43:40;100071.91;;;17.13;41.68
53715;BME280;39608;55.630;37.864;2023-05-11T16:48:45;100070.97;;;17.00;41.09
53715;BME280;39608;55.630;37.864;2023-05-11T16:53:47;100075.94;;;16.72;42.06
53715;BME280;39608;55.630;37.864;2023-05-11T16:58:51;100083.50;;;16.57;42.59
53715;BME280;39608;55.630;37.864;2023-05-11T17:03:55;100083.81;;;16.38;42.86
53715;BME280;39608;55.630;37.864;2023-05-11T17:08:57;100082.50;;;16.27;42.78
53715;BME280;39608;55.630;37.864;2023-05-11T17:14:00;100080.19;;;16.12;44.21
53715;BME280;39608;55.630;37.864;2023-05-11T17:19:04;100086.16;;;16.14;43.44
53715;BME280;39608;55.630;37.864;2023-05-11T17:24:07;100082.22;;;15.88;43.99
53715;BME280;39608;55.630;37.864;2023-05-11T17:29:09;100084.50;;;15.64;44.81
53715;BME280;39608;55.630;37.864;2023-05-11T17:34:13;100083.91;;;15.44;45.44
53715;BME280;39608;55.630;37.864;2023-05-11T17:39:15;100104.50;;;15.19;46.50
53715;BME280;39608;55.630;37.864;2023-05-11T17:44:19;100089.53;;;14.94;46.79
53715;BME280;39608;55.630;37.864;2023-05-11T17:49:23;100107.81;;;14.84;47.92
53715;BME280;39608;55.630;37.864;2023-05-11T17:54:26;100093.88;;;14.72;48.02
53715;BME280;39608;55.630;37.864;2023-05-11T17:59:30;100101.38;;;14.66;48.34
53715;BME280;39608;55.630;37.864;2023-05-11T18:04:34;100098.22;;;14.73;48.20
53715;BME280;39608;55.630;37.864;2023-05-11T18:09:36;100104.50;;;14.74;48.42
53715;BME280;39608;55.630;37.864;2023-05-11T18:14:39;100105.91;;;14.71;48.69
53715;BME280;39608;55.630;37.864;2023-05-11T18:19:44;100104.28;;;14.70;48.91
53715;BME280;39608;55.630;37.864;2023-05-11T18:24:46;100095.19;;;14.61;48.93
53715;BME280;39608;55.630;37.864;2023-05-11T18:29:49;100106.53;;;14.68;48.98
53715;BME280;39608;55.630;37.864;2023-05-11T18:34:52;100097.72;;;14.71;49.02
53715;BME280;39608;55.630;37.864;2023-05-11T18:39:54;100094.06;;;14.62;49.09
53715;BME280;39608;55.630;37.864;2023-05-11T18:44:56;100105.13;;;14.57;49.74
53715;BME280;39608;55.630;37.864;2023-05-11T18:50:01;100108.25;;;14.64;49.26
53715;BME280;39608;55.630;37.864;2023-05-11T18:55:06;100104.97;;;14.62;49.14
53715;BME280;39608;55.630;37.864;2023-05-11T19:00:10;100108.56;;;14.62;48.96
53715;BME280;39608;55.630;37.864;2023-05-11T19:05:14;100094.63;;;14.50;49.40
53715;BME280;39608;55.630;37.864;2023-05-11T19:10:17;100097.53;;;14.53;49.44
53715;BME280;39608;55.630;37.864;2023-05-11T19:15:22;100092.75;;;14.73;49.87
53715;BME280;39608;55.630;37.864;2023-05-11T19:20:26;100098.78;;;14.84;49.20
53715;BME280;39608;55.630;37.864;2023-05-11T19:25:29;100084.66;;;14.82;49.06
53715;BME280;39608;55.630;37.864;2023-05-11T19:30:31;100100.97;;;14.96;48.75
53715;BME280;39608;55.630;37.864;2023-05-11T19:35:35;100105.34;;;15.19;47.49
53715;BME280;39608;55.630;37.864;2023-05-11T19:40:37;100108.44;;;15.27;47.42
53715;BME280;39608;55.630;37.864;2023-05-11T19:45:41;100109.66;;;15.20;47.25
53715;BME280;39608;55.630;37.864;2023-05-11T19:50:46;100106.38;;;15.32;47.76
53715;BME280;39608;55.630;37.864;2023-05-11T19:55:48;100101.59;;;15.38;47.33
53715;BME280;39608;55.630;37.864;2023-05-11T20:00:50;100111.50;;;15.56;47.02
53715;BME280;39608;55.630;37.864;2023-05-11T20:05:55;100073.97;;;15.48;47.02
53715;BME280;39608;55.630;37.864;2023-05-11T20:10:57;100086.53;;;15.49;47.28
53715;BME280;39608;55.630;37.864;2023-05-11T20:15:59;100077.69;;;15.52;47.26
53715;BME280;39608;55.630;37.864;2023-05-11T20:21:04;100041.94;;;15.40;47.28
53715;BME280;39608;55.630;37.864;2023-05-11T20:26:07;100047.00;;;15.55;46.60
53715;BME280;39608;55.630;37.864;2023-05-11T20:31:09;100058.13;;;15.68;46.18
53715;BME280;39608;55.630;37.864;2023-05-11T20:36:13;100053.97;;;15.70;45.83
53715;BME280;39608;55.630;37.864;2023-05-11T20:41:15;100072.94;;;15.67;46.28
53715;BME280;39608;55.630;37.864;2023-05-11T20:46:17;100061.19;;;15.66;45.44
53715;BME280;39608;55.630;37.864;2023-05-11T20:51:21;100051.63;;;15.46;45.29
53715;BME280;39608;55.630;37.864;2023-05-11T20:56:23;100056.91;;;15.43;45.77
53715;BME280;39608;55.630;37.864;2023-05-11T21:01:25;100062.69;;;15.41;45.73
53715;BME280;39608;55.630;37.864;2023-05-11T21:06:29;100068.94;;;15.42;45.97
53715;BME280;39608;55.630;37.864;2023-05-11T21:11:32;100059.16;;;15.18;45.95
53715;BME280;39608;55.630;37.864;2023-05-11T21:16:34;100065.56;;;15.13;46.45
53715;BME280;39608;55.630;37.864;2023-05-11T21:21:37;100068.63;;;15.12;46.26
53715;BME280;39608;55.630;37.864;2023-05-11T21:26:40;100073.41;;;15.06;46.40
53715;BME280;39608;55.630;37.864;2023-05-11T21:31:42;100060.31;;;14.94;46.57
53715;BME280;39608;55.630;37.864;2023-05-11T21:36:45;100042.38;;;14.79;46.96
53715;BME280;39608;55.630;37.864;2023-05-11T21:41:47;100083.59;;;14.92;47.07
53715;BME280;39608;55.630;37.864;2023-05-11T21:46:49;100057.44;;;14.77;47.28
53715;BME280;39608;55.630;37.864;2023-05-11T21:51:53;100083.59;;;14.92;47.59
53715;BME280;39608;55.630;37.864;2023-05-11T21:56:55;100082.09;;;14.85;47.31
53715;BME280;39608;55.630;37.864;2023-05-11T22:01:58;100081.28;;;14.85;47.41
53715;BME280;39608;55.630;37.864;2023-05-11T22:07:02;100083.41;;;14.88;47.42
53715;BME280;39608;55.630;37.864;2023-05-11T22:12:05;100091.91;;;14.86;47.18
53715;BME280;39608;55.630;37.864;2023-05-11T22:17:08;100079.59;;;14.75;47.11
53715;BME280;39608;55.630;37.864;2023-05-11T22:22:12;100088.19;;;14.82;47.73
53715;BME280;39608;55.630;37.864;2023-05-11T22:27:14;100098.69;;;14.89;47.28
53715;BME280;39608;55.630;37.864;2023-05-11T22:32:16;100078.19;;;14.78;47.64
53715;BME280;39608;55.630;37.864;2023-05-11T22:37:20;100078.19;;;14.78;47.65
53715;BME280;39608;55.630;37.864;2023-05-11T22:42:22;100095.44;;;14.87;47.71
53715;BME280;39608;55.630;37.864;2023-05-11T22:47:24;100099.00;;;14.87;47.71
53715;BME280;39608;55.630;37.864;2023-05-11T22:52:28;100101.09;;;14.91;47.97
53715;BME280;39608;55.630;37.864;2023-05-11T22:57:30;100098.38;;;14.91;48.01
53715;BME280;39608;55.630;37.864;2023-05-11T23:02:32;100074.78;;;14.72;48.34
53715;BME280;39608;55.630;37.864;2023-05-11T23:07:36;100083.41;;;14.88;48.29
53715;BME280;39608;55.630;37.864;2023-05-11T23:12:38;100066.97;;;14.79;48.09
53715;BME280;39608;55.630;37.864;2023-05-11T23:17:40;100073.78;;;14.91;47.69
53715;BME280;39608;55.630;37.864;2023-05-11T23:22:44;100071.38;;;14.89;47.69
53715;BME280;39608;55.630;37.864;2023-05-11T23:27:46;100069.56;;;14.84;47.46
53715;BME280;39608;55.630;37.864;2023-05-11T23:32:48;100065.72;;;14.85;47.29
53715;BME280;39608;55.630;37.864;2023-05-11T23:37:52;100066.22;;;14.87;47.10
53715;BME280;39608;55.630;37.864;2023-05-11T23:42:54;100074.09;;;14.89;47.06
53715;BME280;39608;55.630;37.864;2023-05-11T23:47:56;100063.19;;;14.89;46.66
53715;BME280;39608;55.630;37.864;2023-05-11T23:53:00;100060.25;;;14.85;46.77
53715;BME280;39608;55.630;37.864;2023-05-11T23:58:02;100071.69;;;14.87;46.46
